Time;durP1;ratioP1;P1;durP2;ratioP2;P2;SDS_P1;SDS_P2;PMS_P1;PMS_P2;Temp;Humidity;BMP_temperature;BMP_pressure;BME280_temperature;BME280_humidity;BME280_pressure;Samples;Min_cycle;Max_cycle;Signal;HPM_P1;HPM_P2
2022/08/18 00:02:10;;;;;;;28.63;25.58;;;19.20;92.10;;;;;;4992036;28;20707;-79
2022/08/18 00:04:37;;;;;;;33.45;29.95;;;19.30;92.00;;;;;;5008412;28;20025;-79
2022/08/18 00:07:04;;;;;;;37.97;34.03;;;19.40;93.30;;;;;;5003151;28;20033;-79
2022/08/18 00:09:30;;;;;;;39.72;35.28;;;19.30;93.40;;;;;;4990369;28;20132;-79
2022/08/18 00:11:55;;;;;;;27.83;24.90;;;19.20;92.50;;;;;;5022006;28;20041;-79
2022/08/18 00:14:21;;;;;;;32.72;29.33;;;19.20;92.50;;;;;;5001118;28;20022;-78
2022/08/18 00:16:47;;;;;;;42.97;38.00;;;19.20;93.10;;;;;;4992130;28;20040;-78
2022/08/18 00:19:13;;;;;;;25.45;22.77;;;19.00;93.10;;;;;;4990009;28;20030;-78
2022/08/18 00:21:38;;;;;;;46.05;35.88;;;18.80;93.30;;;;;;4992514;28;20022;-79
2022/08/18 00:24:04;;;;;;;31.80;27.25;;;18.90;92.70;;;;;;5004870;28;20164;-79
2022/08/18 00:26:30;;;;;;;29.08;24.98;;;18.90;93.00;;;;;;5003709;28;20026;-80
2022/08/18 00:28:55;;;;;;;24.75;21.90;;;19.00;94.10;;;;;;5002457;28;20033;-80
2022/08/18 00:31:21;;;;;;;36.75;32.92;;;18.90;93.30;;;;;;5008621;28;20036;-80
2022/08/18 00:33:47;;;;;;;34.92;31.13;;;18.90;93.90;;;;;;5007756;28;20049;-79
2022/08/18 00:36:12;;;;;;;28.00;25.13;;;18.70;94.30;;;;;;4990714;28;20072;-79
2022/08/18 00:38:38;;;;;;;35.85;31.30;;;18.60;93.30;;;;;;4988000;28;20026;-79
2022/08/18 00:41:04;;;;;;;43.05;37.42;;;18.70;93.20;;;;;;5005047;28;20038;-79
2022/08/18 00:43:38;;;;;;;28.02;25.17;;;18.70;94.10;;;;;;4987042;28;20025;-78
2022/08/18 00:46:24;;;;;;;43.63;35.88;;;18.80;93.80;;;;;;5005078;28;20037;-79
2022/08/18 00:48:51;;;;;;;40.25;34.58;;;18.70;93.30;;;;;;4991640;28;20041;-79
2022/08/18 00:51:35;;;;;;;34.85;31.02;;;18.70;94.50;;;;;;4989941;28;20068;-79
2022/08/18 00:54:02;;;;;;;26.70;23.88;;;18.70;94.10;;;;;;4994667;28;20041;-79
2022/08/18 00:56:32;;;;;;;25.45;22.80;;;18.80;94.30;;;;;;5004116;28;20029;-79
2022/08/18 00:59:03;;;;;;;46.97;37.33;;;18.80;94.80;;;;;;4989527;28;20042;-78
2022/08/18 01:01:30;;;;;;;37.45;31.48;;;18.80;96.10;;;;;;4990231;28;20476;-78
2022/08/18 01:03:59;;;;;;;41.20;36.67;;;18.60;94.70;;;;;;4989906;28;20038;-79
2022/08/18 01:06:47;;;;;;;57.05;46.47;;;18.60;94.90;;;;;;5002731;28;20041;-79
2022/08/18 01:09:12;;;;;;;28.48;25.13;;;18.50;94.60;;;;;;5006070;28;20467;-79
2022/08/18 01:11:38;;;;;;;27.70;24.73;;;18.30;94.70;;;;;;4987662;28;20125;-78
2022/08/18 01:14:05;;;;;;;30.13;26.17;;;18.40;94.80;;;;;;5002240;28;20037;-79
2022/08/18 01:22:03;;;;;;;52.50;43.78;;;18.40;94.70;;;;;;5003636;28;20456;-79
2022/08/18 01:27:17;;;;;;;42.35;36.60;;;18.20;95.50;;;;;;5005506;28;20090;-78
2022/08/18 01:29:46;;;;;;;32.35;28.08;;;18.20;95.30;;;;;;5005599;28;20030;-79
2022/08/18 01:32:18;;;;;;;36.40;32.40;;;18.20;95.60;;;;;;4990639;28;20160;-78
2022/08/18 01:34:45;;;;;;;31.65;27.83;;;18.40;96.00;;;;;;4977296;28;20025;-79
2022/08/18 01:37:11;;;;;;;50.97;41.90;;;18.30;95.90;;;;;;5001516;28;20038;-78
2022/08/18 01:39:37;;;;;;;34.30;30.48;;;18.20;97.00;;;;;;4992732;28;20034;-78
2022/08/18 01:42:03;;;;;;;47.42;37.97;;;18.20;95.70;;;;;;5006036;28;20092;-79
2022/08/18 01:44:29;;;;;;;24.17;21.58;;;18.20;96.20;;;;;;5003704;28;20112;-78
2022/08/18 01:46:55;;;;;;;37.92;32.45;;;18.20;95.50;;;;;;5008160;28;20180;-79
2022/08/18 01:49:21;;;;;;;23.88;20.92;;;18.20;96.10;;;;;;4991273;28;20022;-79
2022/08/18 01:51:47;;;;;;;23.35;21.00;;;18.30;95.90;;;;;;5003034;28;20517;-78
2022/08/18 01:54:13;;;;;;;49.10;39.95;;;18.30;95.90;;;;;;4989043;28;20033;-79
2022/08/18 01:56:39;;;;;;;59.38;47.75;;;18.40;96.10;;;;;;4988248;28;20029;-78
2022/08/18 01:59:09;;;;;;;46.15;35.15;;;18.20;96.40;;;;;;5001902;28;20046;-78
2022/08/18 02:01:37;;;;;;;44.20;33.53;;;18.10;96.00;;;;;;4989790;28;20022;-79
2022/08/18 02:04:05;;;;;;;38.88;31.70;;;18.20;96.10;;;;;;5005713;28;20050;-79
2022/08/18 02:06:31;;;;;;;59.60;46.88;;;18.20;96.20;;;;;;4990202;28;20034;-78
2022/08/18 02:08:56;;;;;;;53.10;41.38;;;18.20;97.90;;;;;;5000202;28;20535;-78
2022/08/18 02:11:22;;;;;;;52.60;40.67;;;18.10;96.50;;;;;;5005649;28;20523;-78
2022/08/18 02:13:48;;;;;;;43.88;35.53;;;18.30;97.00;;;;;;4981850;28;20405;-78
2022/08/18 02:16:15;;;;;;;63.53;50.05;;;18.40;97.10;;;;;;4989412;28;20033;-79
2022/08/18 02:18:41;;;;;;;66.63;48.88;;;18.40;97.10;;;;;;4988241;28;20448;-78
2022/08/18 02:21:11;;;;;;;43.15;34.67;;;18.40;98.40;;;;;;5004934;28;20112;-78
2022/08/18 02:23:37;;;;;;;53.03;41.97;;;18.60;96.90;;;;;;4987784;28;20034;-78
2022/08/18 02:26:08;;;;;;;44.55;34.63;;;18.50;97.80;;;;;;4989647;28;20464;-79
2022/08/18 02:28:34;;;;;;;40.50;30.48;;;18.50;96.90;;;;;;5005449;28;20037;-78
2022/08/18 02:31:10;;;;;;;63.33;47.95;;;18.60;97.10;;;;;;4988285;28;20065;-78
2022/08/18 02:33:35;;;;;;;38.70;29.30;;;18.50;98.80;;;;;;4990813;28;20864;-78
2022/08/18 02:36:01;;;;;;;46.63;34.83;;;18.30;97.30;;;;;;5005496;28;20038;-78
2022/08/18 02:38:27;;;;;;;43.30;33.38;;;18.30;97.40;;;;;;4987951;28;20080;-78
2022/08/18 02:41:00;;;;;;;58.13;41.90;;;18.30;97.80;;;;;;5001982;28;20393;-78
2022/08/18 02:43:26;;;;;;;45.00;36.05;;;18.30;98.00;;;;;;5003759;28;20072;-79
2022/08/18 02:45:51;;;;;;;50.92;40.08;;;18.30;98.70;;;;;;4987984;28;20120;-78
2022/08/18 02:51:02;;;;;;;46.08;34.65;;;18.30;97.90;;;;;;5002121;28;20029;-78
2022/08/18 02:53:27;;;;;;;75.78;56.58;;;18.50;98.10;;;;;;5002428;28;20124;-78
2022/08/18 02:55:54;;;;;;;68.80;52.70;;;18.30;97.80;;;;;;4990064;28;20128;-79
2022/08/18 02:58:19;;;;;;;80.18;58.00;;;18.30;98.50;;;;;;5004231;28;20397;-79
2022/08/18 03:00:45;;;;;;;58.78;43.33;;;18.20;99.30;;;;;;4989266;28;20033;-78
2022/08/18 03:03:12;;;;;;;48.58;32.28;;;18.30;98.90;;;;;;4986765;28;20080;-78
2022/08/18 03:05:38;;;;;;;48.35;36.10;;;18.20;98.20;;;;;;5000841;28;20065;-78
2022/08/18 03:08:03;;;;;;;43.53;33.03;;;18.20;98.30;;;;;;4989664;28;20076;-79
2022/08/18 03:10:29;;;;;;;46.33;34.80;;;18.30;98.00;;;;;;5002462;28;20079;-78
2022/08/18 03:12:54;;;;;;;48.40;32.72;;;18.30;98.40;;;;;;5004093;28;20038;-78
2022/08/18 03:15:20;;;;;;;64.32;41.60;;;18.40;98.30;;;;;;5004261;28;20057;-78
2022/08/18 03:17:45;;;;;;;61.30;41.00;;;18.50;98.50;;;;;;4992032;28;20037;-78
2022/08/18 03:20:11;;;;;;;83.63;54.47;;;18.50;98.90;;;;;;4986324;28;20056;-78
2022/08/18 03:22:37;;;;;;;74.97;50.13;;;18.40;98.50;;;;;;4988570;28;20037;-78
2022/08/18 03:25:03;;;;;;;68.10;45.80;;;18.50;98.80;;;;;;5000756;28;20202;-79
2022/08/18 03:27:29;;;;;;;85.45;55.35;;;18.40;98.50;;;;;;4986665;28;20488;-78
2022/08/18 03:29:54;;;;;;;97.22;59.42;;;18.60;98.20;;;;;;4987169;28;20036;-79
2022/08/18 03:32:20;;;;;;;58.15;38.92;;;18.50;99.30;;;;;;4987442;28;20080;-79
2022/08/18 03:34:45;;;;;;;61.03;39.40;;;18.50;98.30;;;;;;4997473;28;20129;-79
2022/08/18 03:37:11;;;;;;;108.65;64.28;;;18.60;98.50;;;;;;4988648;28;20048;-78
2022/08/18 03:39:37;;;;;;;58.95;38.13;;;18.60;98.40;;;;;;4987550;28;20125;-78
2022/08/18 03:42:02;;;;;;;69.38;43.35;;;18.60;98.70;;;;;;4988262;28;20036;-78
2022/08/18 03:44:29;;;;;;;100.43;60.30;;;18.70;98.50;;;;;;5001772;28;20117;-79
2022/08/18 03:46:56;;;;;;;86.05;50.78;;;18.60;98.70;;;;;;4988365;28;20033;-78
2022/08/18 03:49:21;;;;;;;78.22;46.38;;;18.60;99.30;;;;;;5003540;28;20315;-78
2022/08/18 03:51:47;;;;;;;123.07;69.68;;;18.60;99.00;;;;;;4990024;28;20038;-78
2022/08/18 03:54:15;;;;;;;68.93;42.15;;;18.60;98.70;;;;;;4973916;28;20037;-78
2022/08/18 03:56:41;;;;;;;117.40;65.75;;;18.70;98.80;;;;;;5004051;28;20484;-79
2022/08/18 03:59:12;;;;;;;71.60;44.97;;;18.80;98.50;;;;;;4988824;28;20036;-78
2022/08/18 04:01:40;;;;;;;63.53;40.47;;;18.70;98.60;;;;;;5001483;28;20465;-79
2022/08/18 04:04:08;;;;;;;76.47;45.28;;;18.80;98.20;;;;;;4987299;28;20539;-79
2022/08/18 04:06:41;;;;;;;85.53;52.55;;;18.80;98.70;;;;;;5000967;28;20402;-78
2022/08/18 04:09:09;;;;;;;84.90;50.83;;;18.80;98.60;;;;;;4996729;28;20042;-78
2022/08/18 04:11:36;;;;;;;66.07;41.28;;;18.80;98.90;;;;;;5001986;28;20062;-78
2022/08/18 04:14:02;;;;;;;127.97;69.18;;;18.80;98.80;;;;;;4987892;28;20562;-78
2022/08/18 04:16:28;;;;;;;85.03;50.97;;;18.70;99.90;;;;;;5003477;28;20034;-78
2022/08/18 04:18:58;;;;;;;108.80;61.67;;;18.80;99.10;;;;;;5005415;28;20077;-78
2022/08/18 04:21:24;;;;;;;112.63;63.50;;;18.80;99.10;;;;;;4991259;28;20305;-78
2022/08/18 04:23:49;;;;;;;94.35;54.00;;;18.80;99.50;;;;;;4990395;28;20423;-78
2022/08/18 04:26:17;;;;;;;82.55;50.58;;;18.80;98.60;;;;;;5003019;28;20037;-80
2022/08/18 04:28:42;;;;;;;106.45;63.65;;;18.80;98.80;;;;;;5003269;28;20033;-79
2022/08/18 04:31:10;;;;;;;85.22;51.28;;;18.80;99.70;;;;;;5019872;28;25498;-79
2022/08/18 04:33:36;;;;;;;75.57;46.38;;;18.70;99.30;;;;;;4990145;28;20088;-79
2022/08/18 04:36:14;;;;;;;63.65;41.00;;;18.70;99.20;;;;;;5001993;28;20041;-79
2022/08/18 04:38:41;;;;;;;62.75;39.58;;;18.80;99.10;;;;;;5002926;28;20037;-79
2022/08/18 04:41:06;;;;;;;92.18;50.03;;;18.80;98.80;;;;;;4999710;28;20044;-77
2022/08/18 04:43:32;;;;;;;87.30;51.75;;;18.70;98.50;;;;;;4985406;28;20149;-80
2022/08/18 04:46:00;;;;;;;97.00;52.90;;;18.60;98.30;;;;;;4998132;28;20121;-77
2022/08/18 04:48:32;;;;;;;90.40;50.80;;;18.70;98.60;;;;;;4989105;28;20026;-79
2022/08/18 04:51:09;;;;;;;74.30;44.75;;;18.70;99.30;;;;;;5006903;28;20033;-78
2022/08/18 04:53:43;;;;;;;59.97;36.58;;;18.70;98.60;;;;;;5004603;28;20108;-80
2022/08/18 04:56:13;;;;;;;56.20;35.75;;;18.80;99.20;;;;;;5008182;28;20084;-78
2022/08/18 04:58:38;;;;;;;65.05;40.90;;;18.80;99.20;;;;;;5007776;28;20037;-78
2022/08/18 05:01:04;;;;;;;76.50;47.13;;;18.90;98.50;;;;;;5008222;28;20396;-79
2022/08/18 05:03:29;;;;;;;83.72;50.22;;;19.10;99.50;;;;;;5001180;28;20026;-78
2022/08/18 05:05:59;;;;;;;50.15;34.42;;;19.10;98.20;;;;;;5001542;28;20030;-78
2022/08/18 05:08:25;;;;;;;63.05;40.08;;;19.00;98.50;;;;;;4989194;28;20124;-79
2022/08/18 05:10:56;;;;;;;55.42;35.85;;;19.00;98.60;;;;;;4989590;28;20037;-78
2022/08/18 05:13:22;;;;;;;63.03;39.47;;;19.10;98.90;;;;;;4999051;28;20502;-78
2022/08/18 05:15:55;;;;;;;61.92;38.28;;;19.10;99.50;;;;;;4991356;28;20040;-78
2022/08/18 05:18:23;;;;;;;79.80;46.05;;;19.10;99.10;;;;;;5001194;28;20034;-79
2022/08/18 05:20:50;;;;;;;67.18;42.15;;;19.10;99.40;;;;;;4989095;28;20452;-79
2022/08/18 05:23:16;;;;;;;61.70;36.70;;;19.10;99.30;;;;;;5004908;28;20030;-78
2022/08/18 05:25:41;;;;;;;92.35;52.40;;;19.10;99.20;;;;;;4986785;28;20524;-78
2022/08/18 05:28:08;;;;;;;52.17;32.60;;;19.10;99.90;;;;;;5007761;28;20124;-78
2022/08/18 05:30:35;;;;;;;69.13;42.47;;;19.20;98.60;;;;;;5001970;28;20026;-77
2022/08/18 05:33:02;;;;;;;78.40;44.58;;;19.20;99.30;;;;;;4991152;28;20555;-78
2022/08/18 05:35:32;;;;;;;86.10;49.35;;;19.20;98.80;;;;;;4987966;28;20033;-78
2022/08/18 05:38:19;;;;;;;72.05;42.58;;;19.20;99.40;;;;;;4989907;28;20094;-78
2022/08/18 05:41:03;;;;;;;78.07;45.35;;;19.20;99.10;;;;;;4992217;28;20037;-79
2022/08/18 05:43:29;;;;;;;65.47;40.58;;;19.30;98.70;;;;;;5002680;28;20402;-79
2022/08/18 05:45:55;;;;;;;51.13;32.72;;;19.30;99.10;;;;;;4990606;28;20084;-78
2022/08/18 05:48:21;;;;;;;80.05;48.17;;;19.40;97.90;;;;;;4987975;28;20072;-79
2022/08/18 05:50:46;;;;;;;67.68;42.33;;;19.50;98.70;;;;;;5004501;28;20512;-78
2022/08/18 05:53:14;;;;;;;90.43;53.30;;;19.50;99.00;;;;;;4985818;28;20041;-78
2022/08/18 05:58:43;;;;;;;60.90;37.15;;;19.40;99.20;;;;;;5000353;28;20115;-79
2022/08/18 06:01:22;;;;;;;71.60;44.05;;;19.50;98.20;;;;;;4990758;28;20043;-78
2022/08/18 06:03:54;;;;;;;55.03;33.65;;;19.60;98.40;;;;;;5005983;28;20132;-78
2022/08/18 06:06:26;;;;;;;47.92;30.70;;;19.60;98.10;;;;;;4994925;28;20398;-79
2022/08/18 06:09:14;;;;;;;68.65;42.47;;;19.70;98.50;;;;;;4989221;28;20558;-79
2022/08/18 06:11:39;;;;;;;76.30;45.97;;;19.70;98.30;;;;;;4988657;28;20096;-79
2022/08/18 06:14:05;;;;;;;93.50;53.05;;;19.70;98.10;;;;;;4987087;28;20069;-78
2022/08/18 06:16:40;;;;;;;52.63;32.63;;;19.70;97.70;;;;;;5002396;28;20041;-79
2022/08/18 06:19:23;;;;;;;85.25;50.78;;;19.80;98.60;;;;;;5006443;28;20041;-78
2022/08/18 06:21:55;;;;;;;60.17;38.33;;;19.90;98.90;;;;;;5003265;28;20485;-79
2022/08/18 06:24:39;;;;;;;61.92;38.70;;;19.90;97.50;;;;;;5021949;28;20384;-79
2022/08/18 06:27:28;;;;;;;59.90;36.88;;;19.90;97.40;;;;;;5018230;28;20068;-79
2022/08/18 06:30:05;;;;;;;54.88;33.92;;;20.00;97.50;;;;;;4999401;28;20034;-79
2022/08/18 06:32:36;;;;;;;64.55;40.80;;;20.10;97.60;;;;;;4999998;28;20460;-78
2022/08/18 06:35:10;;;;;;;54.08;33.97;;;20.10;98.40;;;;;;5017694;28;20053;-79
2022/08/18 06:40:30;;;;;;;60.75;38.03;;;20.20;97.00;;;;;;5013401;28;20036;-79
2022/08/18 06:42:55;;;;;;;51.55;33.75;;;20.10;97.90;;;;;;4983075;28;20083;-78
2022/08/18 06:45:25;;;;;;;66.13;40.40;;;20.20;98.40;;;;;;5007209;28;20026;-79
2022/08/18 06:48:16;;;;;;;49.35;31.13;;;20.20;98.00;;;;;;4986128;28;20124;-78
2022/08/18 06:50:51;;;;;;;52.95;32.83;;;20.20;97.90;;;;;;5017993;28;20028;-79
2022/08/18 06:53:17;;;;;;;52.97;33.03;;;20.20;97.90;;;;;;5004231;28;20060;-80
2022/08/18 06:55:46;;;;;;;50.17;32.22;;;20.20;98.10;;;;;;5000996;28;20026;-79
2022/08/18 06:58:14;;;;;;;58.90;36.67;;;20.20;97.70;;;;;;4999767;28;20033;-78
2022/08/18 07:00:50;;;;;;;70.30;41.20;;;20.20;98.50;;;;;;5015135;28;20390;-80
2022/08/18 07:03:35;;;;;;;64.00;39.35;;;20.20;99.00;;;;;;4998825;28;20033;-79
2022/08/18 07:06:10;;;;;;;62.38;35.55;;;20.20;98.70;;;;;;4978220;28;20076;-79
2022/08/18 07:08:43;;;;;;;71.50;42.47;;;20.10;99.00;;;;;;4978618;28;20110;-79
2022/08/18 07:11:42;;;;;;;60.75;36.03;;;20.10;98.20;;;;;;4997964;28;20516;-78
2022/08/18 07:14:20;;;;;;;65.25;38.63;;;20.10;97.90;;;;;;4991960;28;20041;-77
2022/08/18 07:16:45;;;;;;;53.83;32.45;;;20.00;97.60;;;;;;5004800;28;20057;-78
2022/08/18 07:19:19;;;;;;;67.80;40.75;;;19.90;98.10;;;;;;4985197;28;20068;-78
2022/08/18 07:21:44;;;;;;;61.17;38.40;;;19.90;98.90;;;;;;5000712;28;20567;-79
2022/08/18 07:24:13;;;;;;;54.53;35.75;;;19.90;98.40;;;;;;5000237;28;20038;-79
2022/08/18 07:26:59;;;;;;;59.33;38.05;;;19.80;97.60;;;;;;4998598;28;20045;-78
2022/08/18 07:29:25;;;;;;;70.70;43.72;;;19.80;97.50;;;;;;5026092;28;20099;-79
2022/08/18 07:31:51;;;;;;;48.40;31.48;;;19.80;97.50;;;;;;4989109;28;20034;-79
2022/08/18 07:34:30;;;;;;;45.60;31.67;;;19.70;98.10;;;;;;5004370;28;20544;-79
2022/08/18 07:37:06;;;;;;;53.50;34.20;;;19.70;97.60;;;;;;4965672;28;20045;-79
2022/08/18 07:39:52;;;;;;;49.50;34.15;;;19.70;98.50;;;;;;4974722;28;20251;-81
2022/08/18 07:42:31;;;;;;;61.53;39.50;;;19.70;98.70;;;;;;5003321;28;20060;-81
2022/08/18 07:45:16;;;;;;;52.53;35.70;;;19.70;99.20;;;;;;4985544;28;20122;-81
2022/08/18 07:48:05;;;;;;;40.88;28.63;;;19.80;99.10;;;;;;5016962;28;20065;-81
2022/08/18 07:50:38;;;;;;;40.63;28.63;;;19.80;98.60;;;;;;5001475;28;20029;-81
2022/08/18 07:53:21;;;;;;;65.20;43.13;;;19.80;98.10;;;;;;4994869;28;20117;-82
2022/08/18 07:55:49;;;;;;;40.80;27.52;;;19.90;99.30;;;;;;5006517;28;20029;-82
2022/08/18 07:58:36;;;;;;;39.35;26.60;;;20.00;99.30;;;;;;4994954;28;20053;-81
2022/08/18 08:01:32;;;;;;;36.72;27.10;;;20.10;99.60;;;;;;4993466;28;20037;-82
2022/08/18 08:04:14;;;;;;;40.13;26.13;;;20.10;99.00;;;;;;5007512;28;20476;-83
2022/08/18 08:06:44;;;;;;;33.20;24.25;;;20.20;99.10;;;;;;5004804;28;20490;-82
2022/08/18 08:09:24;;;;;;;42.45;28.80;;;20.20;99.00;;;;;;4983150;28;20034;-81
2022/08/18 08:11:56;;;;;;;41.05;29.23;;;20.20;99.10;;;;;;5005146;28;20108;-82
2022/08/18 08:14:31;;;;;;;36.50;26.02;;;20.30;99.50;;;;;;4991959;28;20573;-82
2022/08/18 08:17:16;;;;;;;54.35;37.60;;;20.30;99.50;;;;;;5005389;28;20022;-82
2022/08/18 08:20:07;;;;;;;49.97;33.30;;;20.30;99.10;;;;;;4999603;28;20076;-82
2022/08/18 08:23:08;;;;;;;37.05;27.80;;;20.40;98.70;;;;;;4991303;28;20400;-82
2022/08/18 08:25:43;;;;;;;39.42;27.20;;;20.40;98.40;;;;;;5022172;28;20080;-82
2022/08/18 08:28:30;;;;;;;34.95;26.33;;;20.50;99.00;;;;;;5005486;28;20029;-81
2022/08/18 08:30:58;;;;;;;41.80;29.35;;;20.60;98.70;;;;;;4992813;28;20033;-83
2022/08/18 08:33:31;;;;;;;40.83;28.65;;;20.60;99.10;;;;;;5021498;28;20111;-81
2022/08/18 08:36:33;;;;;;;42.10;30.13;;;20.80;99.30;;;;;;5005879;28;20029;-83
2022/08/18 08:39:22;;;;;;;50.80;33.70;;;20.90;99.90;;;;;;4961305;28;20112;-83
2022/08/18 08:41:56;;;;;;;44.35;27.10;;;21.10;99.50;;;;;;5005531;28;20116;-84
2022/08/18 08:44:50;;;;;;;47.58;33.53;;;21.40;99.40;;;;;;4988157;28;20068;-82
2022/08/18 08:47:17;;;;;;;61.53;43.47;;;21.60;99.80;;;;;;5029983;28;20032;-83
2022/08/18 08:49:57;;;;;;;48.90;35.00;;;21.80;99.90;;;;;;4987114;28;20060;-83
2022/08/18 08:52:32;;;;;;;47.33;32.70;;;22.10;99.90;;;;;;4990085;28;20037;-84
2022/08/18 08:55:16;;;;;;;36.08;26.77;;;22.30;99.40;;;;;;4986717;28;20389;-83
2022/08/18 08:57:50;;;;;;;41.70;31.15;;;22.60;99.20;;;;;;4989303;28;20122;-83
2022/08/18 09:00:15;;;;;;;38.00;27.30;;;22.90;99.60;;;;;;4997004;28;20647;-83
2022/08/18 09:03:19;;;;;;;43.03;31.58;;;23.20;99.10;;;;;;4985455;28;20053;-84
2022/08/18 09:06:06;;;;;;;39.95;29.10;;;23.10;98.50;;;;;;5000330;28;20101;-84
2022/08/18 09:08:58;;;;;;;45.33;32.35;;;22.90;98.70;;;;;;5020524;28;20042;-84
2022/08/18 09:11:40;;;;;;;53.58;39.42;;;23.20;99.50;;;;;;5009098;28;20033;-83
2022/08/18 09:14:44;;;;;;;33.78;25.60;;;23.30;99.20;;;;;;5018596;28;20370;-83
2022/08/18 09:17:48;;;;;;;37.05;27.48;;;23.40;97.80;;;;;;4992500;28;20033;-83
2022/08/18 09:20:36;;;;;;;36.40;27.25;;;23.40;98.60;;;;;;5018848;28;20032;-84
2022/08/18 09:23:16;;;;;;;36.55;27.13;;;23.50;98.80;;;;;;5022215;28;20571;-84
2022/08/18 09:25:42;;;;;;;44.15;30.30;;;23.60;98.50;;;;;;4992048;28;20071;-84
2022/08/18 09:28:14;;;;;;;35.97;26.60;;;23.60;98.80;;;;;;5014173;28;20489;-84
2022/08/18 09:31:01;;;;;;;31.05;24.58;;;23.70;98.70;;;;;;4992427;28;20389;-84
2022/08/18 09:33:47;;;;;;;36.90;26.55;;;23.80;98.10;;;;;;5007495;28;20053;-84
2022/08/18 09:36:33;;;;;;;33.40;25.02;;;23.80;97.60;;;;;;4999877;28;20038;-84
2022/08/18 09:42:11;;;;;;;53.08;38.60;;;24.00;99.20;;;;;;4986144;28;20036;-84
2022/08/18 09:44:40;;;;;;;32.92;25.35;;;24.30;99.40;;;;;;4967517;28;20058;-84
2022/08/18 09:47:05;;;;;;;37.72;29.55;;;24.40;98.50;;;;;;5005786;28;20048;-84
2022/08/18 09:49:41;;;;;;;33.30;25.67;;;24.50;99.00;;;;;;4986895;28;20038;-85
2022/08/18 09:52:22;;;;;;;43.85;33.78;;;24.50;96.70;;;;;;4989231;28;20280;-84
2022/08/18 09:54:57;;;;;;;34.22;26.17;;;24.70;99.00;;;;;;5003537;28;20349;-84
2022/08/18 09:57:33;;;;;;;50.30;38.50;;;24.90;98.10;;;;;;5005225;28;20065;-85
2022/08/18 10:00:07;;;;;;;41.58;31.65;;;25.10;98.90;;;;;;4973104;28;20878;-85
2022/08/18 10:02:42;;;;;;;38.38;30.00;;;25.20;98.40;;;;;;4989788;28;20034;-85
2022/08/18 10:05:19;;;;;;;37.22;29.27;;;25.30;96.60;;;;;;4999918;28;20037;-83
2022/08/18 10:08:06;;;;;;;42.80;34.40;;;25.50;97.50;;;;;;5009181;28;20038;-85
2022/08/18 10:10:50;;;;;;;;;;;25.60;97.80;;;;;;5009712;28;20393;-84
2022/08/18 10:13:32;;;;;;;39.63;31.15;;;25.60;96.90;;;;;;5016908;28;20066;-85
2022/08/18 10:16:16;;;;;;;43.95;34.90;;;25.70;97.30;;;;;;5007262;28;20093;-86
2022/08/18 10:25:35;;;;;;;37.03;30.33;;;25.80;96.50;;;;;;4998508;28;20044;-85
2022/08/18 10:28:04;;;;;;;51.28;41.50;;;25.80;96.10;;;;;;4958430;28;20037;-84
2022/08/18 10:30:32;;;;;;;39.58;33.85;;;25.80;96.30;;;;;;4967641;28;20371;-85
2022/08/18 10:33:33;;;;;;;46.70;36.60;;;25.80;96.10;;;;;;5015005;28;20060;-84
2022/08/18 10:36:01;;;;;;;45.88;36.47;;;25.80;96.00;;;;;;4999500;28;20034;-84
2022/08/18 10:38:41;;;;;;;33.05;28.50;;;25.90;96.30;;;;;;4998155;28;20037;-84
2022/08/18 10:41:28;;;;;;;28.63;23.75;;;25.90;95.90;;;;;;4979902;28;20048;-83
2022/08/18 10:43:56;;;;;;;30.38;24.88;;;25.90;95.10;;;;;;4997773;28;20046;-84
2022/08/18 10:46:24;;;;;;;33.65;27.48;;;25.90;95.10;;;;;;4987708;28;20072;-83
2022/08/18 10:49:01;;;;;;;30.27;24.55;;;26.10;94.90;;;;;;4978267;28;20091;-84
2022/08/18 10:51:54;;;;;;;42.35;32.60;;;26.40;95.50;;;;;;5003237;28;20064;-84
2022/08/18 10:54:28;;;;;;;36.58;30.92;;;26.70;95.30;;;;;;4324337;28;10000676;-83
2022/08/18 10:57:04;;;;;;;40.53;31.90;;;27.10;95.40;;;;;;4998648;28;20065;-84
2022/08/18 10:59:52;;;;;;;40.25;33.20;;;27.30;94.80;;;;;;5000603;28;20040;-84
2022/08/18 11:02:38;;;;;;;38.60;31.50;;;27.60;94.30;;;;;;4999358;28;20030;-83
2022/08/18 11:05:08;;;;;;;29.73;25.40;;;27.80;93.50;;;;;;4992521;28;20068;-83
2022/08/18 11:07:34;;;;;;;38.55;32.55;;;28.00;92.60;;;;;;4985655;28;20061;-83
2022/08/18 11:10:09;;;;;;;33.78;30.10;;;28.00;92.50;;;;;;4975157;28;20298;-84
2022/08/18 11:13:10;;;;;;;38.30;31.30;;;28.20;92.00;;;;;;4990318;28;20473;-83
2022/08/18 11:15:36;;;;;;;35.35;30.33;;;28.20;91.40;;;;;;5018200;28;20038;-84
2022/08/18 11:18:08;;;;;;;32.47;28.63;;;28.20;91.30;;;;;;5019828;28;20045;-84
2022/08/18 11:20:36;;;;;;;41.22;36.85;;;28.20;90.80;;;;;;5006341;28;20029;-85
2022/08/18 11:23:02;;;;;;;41.28;31.85;;;28.30;90.90;;;;;;4978359;28;20117;-84
2022/08/18 11:25:32;;;;;;;47.03;39.92;;;28.30;90.60;;;;;;4981253;28;20454;-85
2022/08/18 11:27:58;;;;;;;40.08;35.25;;;28.40;90.60;;;;;;4982127;28;20088;-84
2022/08/18 11:30:36;;;;;;;45.15;40.20;;;28.30;90.00;;;;;;4989754;28;20116;-84
2022/08/18 11:33:03;;;;;;;42.58;35.33;;;28.30;89.10;;;;;;5002255;28;20107;-84
2022/08/18 11:35:56;;;;;;;42.13;37.35;;;28.30;88.30;;;;;;4989019;28;20111;-84
2022/08/18 11:38:22;;;;;;;42.20;31.13;;;28.10;87.10;;;;;;5008853;28;20556;-84
2022/08/18 11:40:53;;;;;;;42.33;34.55;;;28.10;87.30;;;;;;4986554;28;20088;-85
2022/08/18 11:43:24;;;;;;;32.85;29.23;;;28.10;87.60;;;;;;4977905;28;20379;-84
2022/08/18 11:45:57;;;;;;;30.50;27.25;;;28.10;87.40;;;;;;4984502;28;20120;-84
2022/08/18 11:48:44;;;;;;;29.77;26.55;;;28.10;87.40;;;;;;4991493;28;20030;-85
2022/08/18 11:51:22;;;;;;;26.05;23.30;;;28.10;85.20;;;;;;4982396;28;20042;-85
2022/08/18 11:53:48;;;;;;;21.23;18.92;;;28.10;84.90;;;;;;4994355;28;20592;-85
2022/08/18 11:56:28;;;;;;;15.65;14.00;;;28.00;85.00;;;;;;5019744;28;20144;-85
2022/08/18 11:59:05;;;;;;;20.55;16.30;;;27.90;85.20;;;;;;5004033;28;20492;-86
2022/08/18 12:01:42;;;;;;;18.42;15.88;;;27.80;85.40;;;;;;5004418;28;20041;-85
2022/08/18 12:04:36;;;;;;;18.63;16.25;;;27.80;84.50;;;;;;4994207;28;20042;-86
2022/08/18 12:07:13;;;;;;;15.90;12.57;;;27.70;84.40;;;;;;5003479;28;20440;-87
2022/08/18 12:10:10;;;;;;;14.95;13.20;;;27.70;84.30;;;;;;4986281;28;20068;-87
2022/08/18 12:12:51;;;;;;;16.23;12.95;;;27.60;84.90;;;;;;4985140;28;20087;-86
2022/08/18 12:15:17;;;;;;;15.25;13.75;;;27.60;85.60;;;;;;4996533;28;20029;-85
2022/08/18 12:17:44;;;;;;;16.98;15.10;;;27.70;84.80;;;;;;5024354;28;20026;-85
2022/08/18 12:20:16;;;;;;;16.23;14.52;;;27.70;84.60;;;;;;4991058;28;20496;-86
2022/08/18 12:22:42;;;;;;;14.68;12.25;;;27.70;83.30;;;;;;4989695;28;20041;-85
2022/08/18 12:25:16;;;;;;;15.38;12.32;;;27.60;84.00;;;;;;4970795;28;20112;-86
2022/08/18 12:27:42;;;;;;;18.80;14.02;;;27.50;84.10;;;;;;4995346;28;20033;-86
2022/08/18 12:30:09;;;;;;;14.38;12.90;;;27.60;84.20;;;;;;4976118;28;20092;-86
2022/08/18 12:32:38;;;;;;;16.63;14.23;;;27.60;84.20;;;;;;4988067;28;20133;-86
2022/08/18 12:35:12;;;;;;;15.98;12.55;;;27.70;83.20;;;;;;5006539;28;20054;-86
2022/08/18 12:37:48;;;;;;;15.00;13.48;;;27.60;82.80;;;;;;4991946;28;20029;-86
2022/08/18 12:40:13;;;;;;;14.60;13.13;;;27.60;82.80;;;;;;5005002;28;20094;-86
2022/08/18 12:42:43;;;;;;;14.82;13.32;;;27.70;83.00;;;;;;4990415;28;20560;-87
2022/08/18 12:45:09;;;;;;;16.50;14.52;;;27.70;84.10;;;;;;4994831;28;20045;-87
2022/08/18 12:47:37;;;;;;;14.27;12.73;;;27.90;82.50;;;;;;4989906;28;20030;-87
2022/08/18 12:50:09;;;;;;;23.77;13.57;;;28.00;82.60;;;;;;4969808;28;20055;-87
2022/08/18 12:52:38;;;;;;;17.88;13.77;;;28.00;82.20;;;;;;4971074;28;20069;-88
2022/08/18 12:55:10;;;;;;;13.00;11.40;;;28.10;81.90;;;;;;4966801;28;20039;-87
2022/08/18 12:57:36;;;;;;;15.10;13.57;;;28.20;81.60;;;;;;4991858;28;20040;-84
2022/08/18 13:00:03;;;;;;;15.80;14.05;;;28.30;81.30;;;;;;4999011;28;20420;-84
2022/08/18 13:02:31;;;;;;;13.05;11.77;;;28.40;82.10;;;;;;4989730;28;20099;-85
2022/08/18 13:04:58;;;;;;;14.23;12.82;;;28.60;81.20;;;;;;5001977;28;20046;-84
2022/08/18 13:07:27;;;;;;;15.80;14.30;;;28.80;80.80;;;;;;5001095;28;20583;-87
2022/08/18 13:09:54;;;;;;;12.07;10.70;;;28.90;79.70;;;;;;4985626;28;20075;-87
2022/08/18 13:12:21;;;;;;;13.25;12.15;;;28.90;79.50;;;;;;4978805;28;20553;-87
2022/08/18 13:14:46;;;;;;;16.90;15.00;;;29.10;80.20;;;;;;4992321;28;20034;-87
2022/08/18 13:17:12;;;;;;;18.80;17.20;;;29.40;79.00;;;;;;4998524;28;20443;-85
2022/08/18 13:19:38;;;;;;;16.23;14.52;;;29.60;78.80;;;;;;5006543;28;20030;-85